createdAt,value
2019-05-28T00:00:22.441Z,32.70
2019-05-28T00:02:49.690Z,32.70
2019-05-28T00:05:28.457Z,32.70
2019-05-28T00:07:55.157Z,32.70
2019-05-28T00:10:21.658Z,32.70
2019-05-28T00:12:48.625Z,32.70
2019-05-28T00:15:15.753Z,32.70
2019-05-28T00:17:42.432Z,32.80
2019-05-28T00:20:10.691Z,32.80
2019-05-28T00:22:37.329Z,32.70
2019-05-28T00:25:04.959Z,32.70
2019-05-28T00:27:32.058Z,32.70
2019-05-28T00:29:59.195Z,32.70
2019-05-28T00:32:29.278Z,32.80
2019-05-28T00:34:56.849Z,32.80
2019-05-28T00:37:23.765Z,32.80
2019-05-28T00:39:51.063Z,32.80
2019-05-28T00:42:18.248Z,32.80
2019-05-28T00:44:45.054Z,32.80
2019-05-28T00:47:11.837Z,32.70
2019-05-28T00:49:38.937Z,32.70
2019-05-28T00:52:05.693Z,32.70
2019-05-28T00:54:32.356Z,32.70
2019-05-28T00:57:00.119Z,32.70
2019-05-28T00:59:27.957Z,32.70
2019-05-28T01:01:55.619Z,32.70
2019-05-28T01:04:22.773Z,32.70
2019-05-28T01:06:51.855Z,32.70
2019-05-28T01:09:19.253Z,32.60
2019-05-28T01:11:46.489Z,32.70
2019-05-28T01:14:13.308Z,32.70
2019-05-28T01:16:40.822Z,32.60
2019-05-28T01:19:08.680Z,32.60
2019-05-28T01:21:35.600Z,32.60
2019-05-28T01:24:02.425Z,32.60
2019-05-28T01:26:30.038Z,32.60
2019-05-28T01:28:56.875Z,32.60
2019-05-28T01:31:23.782Z,32.60
2019-05-28T01:33:51.075Z,32.50
2019-05-28T01:36:17.995Z,32.50
2019-05-28T01:38:45.032Z,32.50
2019-05-28T01:41:12.075Z,32.50
2019-05-28T01:43:38.920Z,32.50
2019-05-28T01:46:05.779Z,32.50
2019-05-28T01:48:32.839Z,32.50
2019-05-28T01:50:59.659Z,32.50
2019-05-28T01:53:26.407Z,32.50
2019-05-28T01:55:53.561Z,32.60
2019-05-28T01:58:20.411Z,32.60
2019-05-28T02:00:47.073Z,32.60
2019-05-28T02:03:14.416Z,32.60
2019-05-28T02:05:41.384Z,32.60
2019-05-28T02:08:08.731Z,32.60
2019-05-28T02:10:35.740Z,32.60
2019-05-28T02:13:03.547Z,32.50
2019-05-28T02:15:30.314Z,32.50
2019-05-28T02:17:57.431Z,32.50
2019-05-28T02:20:24.586Z,32.50
2019-05-28T02:22:51.605Z,32.50
2019-05-28T02:25:19.191Z,32.40
2019-05-28T02:27:46.013Z,32.40
2019-05-28T02:30:15.200Z,32.40
2019-05-28T02:32:42.372Z,32.40
2019-05-28T02:35:09.332Z,32.30
2019-05-28T02:37:36.251Z,32.30
2019-05-28T02:40:06.810Z,32.30
2019-05-28T02:42:33.681Z,32.30
2019-05-28T02:45:00.562Z,32.30
2019-05-28T02:47:27.713Z,32.30
2019-05-28T02:49:54.865Z,32.30
2019-05-28T02:52:22.340Z,32.20
2019-05-28T02:54:50.316Z,32.10
2019-05-28T02:57:18.265Z,32.10
2019-05-28T02:59:47.595Z,32.20
2019-05-28T03:02:16.486Z,32.10
2019-05-28T03:04:44.544Z,32.10
2019-05-28T03:07:12.727Z,32.10
2019-05-28T03:09:40.191Z,32.10
2019-05-28T03:12:07.346Z,32.10
2019-05-28T03:14:34.770Z,32.10
2019-05-28T03:17:03.182Z,32.10
2019-05-28T03:19:30.741Z,32.10
2019-05-28T03:21:59.297Z,32.10
2019-05-28T03:24:30.896Z,32.00
2019-05-28T03:26:57.907Z,32.00
2019-05-28T03:29:25.145Z,32.00
2019-05-28T03:32:07.131Z,32.00
2019-05-28T03:34:20.840Z,32.00
2019-05-28T03:36:47.701Z,32.10
2019-05-28T03:39:15.511Z,32.00
2019-05-28T03:41:42.139Z,32.00
2019-05-28T03:44:08.818Z,32.10
2019-05-28T03:46:35.749Z,32.00
2019-05-28T03:49:02.982Z,32.00
2019-05-28T03:51:30.135Z,32.00
2019-05-28T03:53:57.317Z,32.00
2019-05-28T03:56:24.294Z,32.00
2019-05-28T03:58:51.588Z,32.00
2019-05-28T04:01:18.591Z,32.10
2019-05-28T04:03:45.500Z,32.10
2019-05-28T04:06:12.330Z,32.20
2019-05-28T04:08:39.901Z,32.20
2019-05-28T04:11:06.598Z,32.20
2019-05-28T04:13:33.565Z,32.20
2019-05-28T04:16:00.866Z,32.30
2019-05-28T04:18:27.588Z,32.30
2019-05-28T04:20:54.299Z,32.30
2019-05-28T04:23:21.394Z,32.40
2019-05-28T04:25:48.227Z,32.50
2019-05-28T04:28:16.063Z,32.60
2019-05-28T04:30:43.428Z,32.70
2019-05-28T04:33:10.480Z,32.70
2019-05-28T04:35:37.523Z,32.90
2019-05-28T04:38:04.705Z,33.20
2019-05-28T04:40:31.426Z,33.50
2019-05-28T04:42:58.598Z,33.60
2019-05-28T04:45:25.812Z,33.70
2019-05-28T04:47:53.282Z,33.70
2019-05-28T04:50:24.774Z,33.70
2019-05-28T04:52:53.204Z,33.80
2019-05-28T04:55:20.560Z,34.10
2019-05-28T04:57:47.431Z,34.30
2019-05-28T05:00:15.533Z,34.40
2019-05-28T05:02:58.104Z,34.60
2019-05-28T05:05:11.716Z,34.90
2019-05-28T05:07:38.824Z,35.30
2019-05-28T05:10:05.937Z,35.60
2019-05-28T05:12:32.669Z,35.90
2019-05-28T05:14:59.942Z,36.20
2019-05-28T05:17:28.102Z,36.50
2019-05-28T05:19:54.772Z,36.80
2019-05-28T05:22:21.724Z,37.10
2019-05-28T05:24:49.560Z,37.40
2019-05-28T05:27:16.398Z,37.50
2019-05-28T05:29:43.647Z,37.40
2019-05-28T05:32:10.397Z,37.20
2019-05-28T05:34:37.228Z,36.90
2019-05-28T05:37:04.701Z,36.60
2019-05-28T05:39:31.646Z,36.30
2019-05-28T05:41:58.736Z,36.10
2019-05-28T05:44:25.906Z,35.90
2019-05-28T05:46:52.985Z,35.80
2019-05-28T05:49:19.908Z,35.70
2019-05-28T05:51:46.899Z,35.70
2019-05-28T05:54:13.479Z,35.70
2019-05-28T05:56:40.397Z,35.70
2019-05-28T05:59:07.435Z,35.90
2019-05-28T06:01:34.390Z,36.20
2019-05-28T06:04:01.503Z,36.60
2019-05-28T06:06:28.867Z,37.00
2019-05-28T06:08:55.604Z,37.30
2019-05-28T06:11:22.832Z,37.50
2019-05-28T06:13:50.255Z,37.60
2019-05-28T06:16:17.171Z,37.70
2019-05-28T06:18:44.633Z,37.80
2019-05-28T06:21:17.376Z,37.80
2019-05-28T06:23:40.868Z,37.90
2019-05-28T06:26:07.644Z,37.90
2019-05-28T06:28:35.184Z,37.90
2019-05-28T06:31:01.758Z,37.90
2019-05-28T06:33:28.449Z,38.00
2019-05-28T06:35:55.444Z,38.00
2019-05-28T06:38:22.357Z,38.10
2019-05-28T06:40:49.608Z,38.30
2019-05-28T06:43:17.084Z,38.40
2019-05-28T06:45:44.206Z,38.40
2019-05-28T06:48:11.296Z,38.20
2019-05-28T06:50:38.516Z,37.90
2019-05-28T06:53:05.373Z,37.60
2019-05-28T06:55:32.599Z,37.50
2019-05-28T06:58:00.064Z,37.60
2019-05-28T07:00:27.070Z,37.60
2019-05-28T07:02:53.714Z,37.70
2019-05-28T07:05:21.125Z,37.70
2019-05-28T07:07:47.985Z,37.60
2019-05-28T07:10:15.159Z,37.60
2019-05-28T07:12:42.140Z,37.50
2019-05-28T07:15:09.344Z,37.50
2019-05-28T07:17:36.673Z,37.50
2019-05-28T07:20:06.926Z,37.50
2019-05-28T07:22:33.840Z,37.60
2019-05-28T07:25:00.513Z,37.80
2019-05-28T07:27:27.750Z,38.10
2019-05-28T07:29:54.862Z,38.50
2019-05-28T07:32:21.621Z,38.70
2019-05-28T07:34:49.001Z,38.90
2019-05-28T07:37:15.989Z,39.10
2019-05-28T07:39:42.853Z,39.10
2019-05-28T07:42:10.115Z,39.00
2019-05-28T07:44:37.084Z,39.10
2019-05-28T07:47:03.978Z,39.10
2019-05-28T07:49:31.182Z,39.10
2019-05-28T07:51:57.951Z,39.10
2019-05-28T07:54:25.019Z,39.00
2019-05-28T07:56:52.108Z,39.00
2019-05-28T07:59:19.243Z,38.90
2019-05-28T08:01:46.459Z,38.90
2019-05-28T08:04:14.087Z,39.00
2019-05-28T08:06:54.278Z,39.10
2019-05-28T08:09:09.613Z,39.20
2019-05-28T08:11:36.983Z,39.30
2019-05-28T08:14:04.026Z,39.50
2019-05-28T08:16:30.858Z,39.50
2019-05-28T08:18:58.867Z,39.60
2019-05-28T08:21:25.833Z,39.80
2019-05-28T08:23:52.739Z,39.80
2019-05-28T08:26:19.676Z,39.90
2019-05-28T08:28:46.591Z,40.00
2019-05-28T08:31:17.362Z,40.10
2019-05-28T08:33:44.091Z,40.30
2019-05-28T08:36:11.132Z,40.40
2019-05-28T08:38:37.985Z,40.60
2019-05-28T08:41:05.647Z,40.70
2019-05-28T08:43:33.090Z,40.80
2019-05-28T08:46:00.025Z,40.80
2019-05-28T08:48:27.493Z,40.80
2019-05-28T08:50:54.243Z,40.70
2019-05-28T08:53:21.100Z,40.60
2019-05-28T08:55:49.621Z,40.50
2019-05-28T08:58:16.517Z,40.40
2019-05-28T09:00:44.517Z,40.40
2019-05-28T09:03:11.897Z,40.30
2019-05-28T09:05:39.482Z,40.20
2019-05-28T09:08:06.769Z,40.20
2019-05-28T09:10:34.244Z,40.20
2019-05-28T09:13:01.680Z,40.20
2019-05-28T09:15:28.716Z,40.30
2019-05-28T09:17:56.077Z,40.40
2019-05-28T09:20:23.264Z,40.20
2019-05-28T09:22:51.954Z,40.10
2019-05-28T09:25:19.390Z,39.90
2019-05-28T09:27:46.519Z,39.90
2019-05-28T09:30:14.296Z,39.90
2019-05-28T09:32:41.753Z,39.90
2019-05-28T09:35:09.165Z,40.10
2019-05-28T09:37:36.048Z,40.10
2019-05-28T09:40:04.965Z,40.20
2019-05-28T09:42:31.979Z,40.30
2019-05-28T09:44:58.865Z,40.30
2019-05-28T09:47:27.854Z,40.30
2019-05-28T09:49:56.334Z,40.20
2019-05-28T09:52:23.412Z,40.20
2019-05-28T09:54:50.695Z,40.00
2019-05-28T09:57:17.683Z,40.00
2019-05-28T09:59:44.907Z,39.90
2019-05-28T10:02:12.129Z,39.90
2019-05-28T10:04:49.121Z,39.80
2019-05-28T10:07:08.076Z,39.70
2019-05-28T10:09:35.193Z,39.70
2019-05-28T10:12:01.955Z,39.70
2019-05-28T10:14:29.660Z,39.70
2019-05-28T10:16:58.457Z,39.70
2019-05-28T10:19:25.496Z,39.90
2019-05-28T10:21:52.565Z,39.90
2019-05-28T10:24:19.799Z,39.90
2019-05-28T10:26:46.980Z,40.00
2019-05-28T10:29:14.231Z,40.00
2019-05-28T10:31:41.390Z,40.00
2019-05-28T10:34:08.612Z,40.00
2019-05-28T10:36:37.904Z,40.00
2019-05-28T10:39:07.625Z,40.00
2019-05-28T10:41:34.589Z,40.00
2019-05-28T10:44:14.846Z,40.10
2019-05-28T10:46:42.649Z,40.00
2019-05-28T10:49:09.625Z,40.10
2019-05-28T10:51:36.690Z,40.10
2019-05-28T10:54:04.002Z,40.20
2019-05-28T10:56:32.223Z,40.20
2019-05-28T10:58:59.694Z,40.20
2019-05-28T11:01:28.063Z,40.10
2019-05-28T11:03:55.109Z,40.10
2019-05-28T11:06:22.648Z,40.10
2019-05-28T11:08:49.621Z,40.00
2019-05-28T11:11:16.446Z,40.00
2019-05-28T11:13:52.662Z,40.00
2019-05-28T11:16:12.407Z,40.00
2019-05-28T11:18:39.347Z,40.20
2019-05-28T11:21:09.687Z,40.30
2019-05-28T11:23:35.222Z,40.30
2019-05-28T11:26:02.308Z,40.30
2019-05-28T11:28:29.595Z,40.40
2019-05-28T11:30:56.483Z,40.50
2019-05-28T11:33:23.464Z,40.50
2019-05-28T11:35:50.547Z,40.40
2019-05-28T11:38:17.621Z,40.20
2019-05-28T11:40:44.406Z,40.10
2019-05-28T11:43:13.411Z,40.10
2019-05-28T11:45:40.343Z,40.00
2019-05-28T11:48:07.353Z,39.90
2019-05-28T11:50:34.768Z,39.90
2019-05-28T11:53:01.487Z,39.80
2019-05-28T11:55:29.056Z,39.70
2019-05-28T11:57:56.150Z,39.70
2019-05-28T12:00:25.638Z,39.70
2019-05-28T12:02:52.755Z,39.80
2019-05-28T12:05:20.314Z,39.90
2019-05-28T12:07:47.162Z,40.00
2019-05-28T12:10:14.740Z,39.90
2019-05-28T12:12:41.899Z,39.90
2019-05-28T12:15:10.153Z,39.80
2019-05-28T12:17:42.760Z,39.80
2019-05-28T12:20:06.833Z,39.70
2019-05-28T12:22:34.178Z,39.70
2019-05-28T12:25:01.481Z,39.60
2019-05-28T12:27:29.284Z,39.60
2019-05-28T12:29:55.868Z,39.60
2019-05-28T12:32:23.081Z,39.60
2019-05-28T12:34:50.825Z,39.60
2019-05-28T12:37:17.576Z,39.60
2019-05-28T12:39:44.836Z,39.60
2019-05-28T12:42:12.012Z,39.60
2019-05-28T12:44:42.012Z,39.60
2019-05-28T12:47:08.034Z,39.60
2019-05-28T12:49:35.280Z,39.60
2019-05-28T12:52:02.557Z,39.70
2019-05-28T12:54:30.276Z,39.90
2019-05-28T12:56:57.511Z,40.00
2019-05-28T12:59:24.766Z,40.20
2019-05-28T13:01:54.721Z,40.40
2019-05-28T13:04:22.042Z,40.50
2019-05-28T13:06:48.911Z,40.60
2019-05-28T13:09:15.752Z,40.40
2019-05-28T13:11:43.226Z,40.40
2019-05-28T13:14:10.432Z,40.20
2019-05-28T13:16:37.541Z,40.10
2019-05-28T13:19:05.244Z,39.70
2019-05-28T13:21:32.855Z,39.50
2019-05-28T13:23:59.690Z,39.40
2019-05-28T13:26:26.681Z,39.40
2019-05-28T13:28:53.412Z,39.40
2019-05-28T13:31:20.468Z,39.40
2019-05-28T13:33:47.693Z,39.30
2019-05-28T13:36:14.440Z,39.40
2019-05-28T13:38:42.813Z,39.40
2019-05-28T13:41:10.102Z,39.40
2019-05-28T13:43:36.906Z,39.40
2019-05-28T13:46:04.085Z,39.50
2019-05-28T13:48:32.030Z,39.60
2019-05-28T13:50:58.886Z,39.80
2019-05-28T13:53:26.240Z,40.00
2019-05-28T13:55:53.693Z,40.10
2019-05-28T13:58:21.244Z,40.10
2019-05-28T14:00:48.389Z,40.10
2019-05-28T14:03:15.748Z,40.10
2019-05-28T14:05:42.999Z,40.00
2019-05-28T14:08:10.048Z,39.70
2019-05-28T14:10:37.623Z,39.60
2019-05-28T14:13:05.384Z,39.40
2019-05-28T14:15:32.217Z,39.20
2019-05-28T14:17:59.611Z,39.00
2019-05-28T14:20:26.618Z,38.90
2019-05-28T14:22:53.694Z,38.90
2019-05-28T14:25:20.963Z,38.80
2019-05-28T14:27:48.907Z,38.70
2019-05-28T14:30:18.001Z,38.80
2019-05-28T14:32:45.053Z,38.90
2019-05-28T14:35:13.787Z,38.90
2019-05-28T14:37:40.566Z,38.90
2019-05-28T14:40:08.336Z,38.90
2019-05-28T14:42:35.275Z,39.00
2019-05-28T14:45:03.991Z,38.90
2019-05-28T14:47:31.353Z,39.00
2019-05-28T14:49:58.679Z,39.00
2019-05-28T14:52:25.846Z,39.00
2019-05-28T14:54:53.291Z,39.00
2019-05-28T14:57:20.273Z,38.90
2019-05-28T14:59:47.178Z,38.90
2019-05-28T15:02:14.985Z,38.90
2019-05-28T15:04:41.834Z,38.90
2019-05-28T15:07:08.403Z,38.80
2019-05-28T15:09:36.320Z,38.70
2019-05-28T15:12:03.941Z,38.70
2019-05-28T15:14:32.763Z,38.60
2019-05-28T15:17:00.523Z,38.50
2019-05-28T15:19:27.275Z,38.60
2019-05-28T15:21:54.339Z,38.70
2019-05-28T15:24:21.577Z,38.60
2019-05-28T15:26:48.938Z,38.60
2019-05-28T15:29:16.424Z,38.40
2019-05-28T15:31:44.468Z,38.30
2019-05-28T15:34:11.407Z,38.10
2019-05-28T15:36:38.406Z,38.00
2019-05-28T15:39:08.969Z,37.90
2019-05-28T15:41:36.550Z,37.90
2019-05-28T15:44:03.731Z,37.90
2019-05-28T15:46:31.606Z,37.90
2019-05-28T15:48:59.207Z,37.90
2019-05-28T15:51:28.108Z,37.90
2019-05-28T15:53:55.578Z,38.00
2019-05-28T15:56:22.747Z,38.10
2019-05-28T15:58:49.723Z,38.10
2019-05-28T16:01:17.833Z,38.00
2019-05-28T16:03:44.880Z,37.90
2019-05-28T16:06:12.475Z,37.80
2019-05-28T16:08:40.935Z,37.80
2019-05-28T16:11:07.790Z,37.70
2019-05-28T16:13:34.749Z,37.60
2019-05-28T16:16:01.823Z,37.60
2019-05-28T16:18:28.588Z,37.50
2019-05-28T16:20:55.589Z,37.50
2019-05-28T16:23:22.916Z,37.40
2019-05-28T16:25:49.866Z,37.40
2019-05-28T16:28:17.060Z,37.40
2019-05-28T16:30:45.852Z,37.30
2019-05-28T16:33:12.428Z,37.20
2019-05-28T16:35:39.585Z,37.20
2019-05-28T16:38:06.575Z,37.20
2019-05-28T16:40:33.267Z,37.20
2019-05-28T16:43:00.084Z,37.20
2019-05-28T16:45:27.202Z,37.20
2019-05-28T16:47:54.020Z,37.20
2019-05-28T16:50:21.005Z,37.20
2019-05-28T16:52:48.422Z,37.20
2019-05-28T16:55:15.915Z,37.20
2019-05-28T16:57:42.690Z,37.20
2019-05-28T17:00:09.889Z,37.10
2019-05-28T17:02:36.665Z,37.10
2019-05-28T17:05:06.138Z,37.10
2019-05-28T17:07:33.082Z,37.00
2019-05-28T17:09:59.864Z,36.90
2019-05-28T17:12:26.789Z,36.80
2019-05-28T17:14:53.966Z,36.60
2019-05-28T17:17:20.956Z,36.60
2019-05-28T17:19:47.821Z,36.60
2019-05-28T17:22:15.530Z,36.70
2019-05-28T17:24:42.499Z,36.70
2019-05-28T17:27:09.558Z,36.60
2019-05-28T17:29:36.708Z,36.50
2019-05-28T17:32:04.032Z,36.40
2019-05-28T17:34:32.542Z,36.20
2019-05-28T17:37:00.202Z,36.10
2019-05-28T17:39:27.466Z,36.00
2019-05-28T17:41:54.412Z,35.90
2019-05-28T17:44:21.862Z,35.80
2019-05-28T17:46:48.550Z,35.70
2019-05-28T17:49:15.466Z,35.60
2019-05-28T17:51:43.718Z,35.50
2019-05-28T17:54:16.363Z,35.50
2019-05-28T17:56:45.243Z,35.40
2019-05-28T17:59:12.176Z,35.30
2019-05-28T18:01:39.400Z,35.20
2019-05-28T18:04:07.672Z,35.20
2019-05-28T18:06:34.390Z,35.10
2019-05-28T18:09:01.092Z,35.00
2019-05-28T18:11:28.727Z,34.90
2019-05-28T18:13:56.629Z,34.90
2019-05-28T18:16:25.352Z,34.80
2019-05-28T18:18:52.446Z,34.80
2019-05-28T18:21:19.569Z,34.80
2019-05-28T18:23:47.036Z,34.60
2019-05-28T18:26:14.318Z,34.40
2019-05-28T18:28:41.688Z,34.40
2019-05-28T18:31:09.016Z,34.30
2019-05-28T18:33:35.978Z,34.20
2019-05-28T18:36:02.948Z,34.10
2019-05-28T18:38:32.509Z,33.90
2019-05-28T18:40:59.652Z,33.90
2019-05-28T18:43:27.625Z,33.90
2019-05-28T18:45:54.458Z,33.90
2019-05-28T18:48:21.503Z,33.90
2019-05-28T18:50:48.464Z,33.90
2019-05-28T18:53:15.474Z,34.00
2019-05-28T18:55:42.651Z,34.00
2019-05-28T18:58:10.739Z,34.00
2019-05-28T19:00:38.986Z,34.10
2019-05-28T19:03:07.388Z,34.10
2019-05-28T19:05:47.973Z,34.10
2019-05-28T19:08:20.296Z,34.10
2019-05-28T19:10:49.542Z,34.00
2019-05-28T19:13:16.775Z,33.90
2019-05-28T19:15:44.061Z,33.70
2019-05-28T19:18:13.023Z,33.70
2019-05-28T19:20:40.274Z,33.70
2019-05-28T19:23:07.344Z,33.70
2019-05-28T19:25:34.267Z,33.70
2019-05-28T19:28:01.837Z,33.70
2019-05-28T19:30:34.849Z,33.70
2019-05-28T19:33:03.826Z,33.60
2019-05-28T19:35:30.723Z,33.60
2019-05-28T19:37:58.939Z,33.60
2019-05-28T19:40:42.494Z,33.60
2019-05-28T19:43:10.290Z,33.50
2019-05-28T19:45:37.702Z,33.50
2019-05-28T19:48:05.479Z,33.40
2019-05-28T19:50:33.030Z,33.40
2019-05-28T19:53:00.504Z,33.40
2019-05-28T19:55:27.941Z,33.30
2019-05-28T19:57:55.619Z,33.20
2019-05-28T20:00:23.626Z,33.00
2019-05-28T20:02:50.909Z,32.80
2019-05-28T20:05:19.249Z,32.70
2019-05-28T20:07:46.289Z,32.50
2019-05-28T20:10:16.063Z,32.40
2019-05-28T20:12:43.252Z,32.20
2019-05-28T20:15:15.094Z,32.20
2019-05-28T20:17:41.834Z,32.10
2019-05-28T20:20:09.577Z,32.10
2019-05-28T20:22:36.642Z,32.10
2019-05-28T20:25:08.090Z,32.10
2019-05-28T20:27:35.443Z,32.10
2019-05-28T20:30:05.143Z,32.10
2019-05-28T20:32:32.623Z,32.20
2019-05-28T20:35:01.345Z,32.20
2019-05-28T20:37:28.753Z,32.20
2019-05-28T20:39:55.524Z,32.20
2019-05-28T20:42:27.226Z,32.20
2019-05-28T20:44:53.012Z,32.20
2019-05-28T20:47:20.245Z,32.20
2019-05-28T20:49:47.321Z,32.20
2019-05-28T20:52:14.556Z,32.00
2019-05-28T20:54:41.599Z,31.90
2019-05-28T20:57:09.339Z,31.80
2019-05-28T20:59:36.168Z,31.80
2019-05-28T21:02:03.729Z,31.80
2019-05-28T21:04:30.732Z,31.80
2019-05-28T21:06:58.904Z,31.90
2019-05-28T21:09:26.735Z,31.90
2019-05-28T21:11:54.538Z,31.90
2019-05-28T21:14:22.261Z,31.90
2019-05-28T21:16:49.311Z,31.90
2019-05-28T21:19:16.205Z,31.90
2019-05-28T21:21:43.092Z,31.90
2019-05-28T21:24:09.936Z,31.90
2019-05-28T21:26:37.031Z,31.90
2019-05-28T21:29:03.967Z,31.90
2019-05-28T21:31:31.476Z,31.90
2019-05-28T21:33:59.540Z,31.80
2019-05-28T21:36:27.133Z,31.80
2019-05-28T21:38:55.170Z,31.80
2019-05-28T21:41:22.467Z,31.80
2019-05-28T21:43:49.041Z,31.80
2019-05-28T21:46:15.696Z,31.80
2019-05-28T21:48:42.623Z,31.80
2019-05-28T21:51:09.340Z,31.80
2019-05-28T21:53:36.484Z,31.80
2019-05-28T21:56:03.529Z,31.80
2019-05-28T21:58:30.157Z,31.80
2019-05-28T22:01:01.972Z,31.80
2019-05-28T22:03:29.121Z,31.70
2019-05-28T22:05:55.760Z,31.70
2019-05-28T22:08:22.558Z,31.70
2019-05-28T22:10:49.540Z,31.70
2019-05-28T22:13:21.751Z,31.70
2019-05-28T22:15:44.865Z,31.70
2019-05-28T22:18:11.976Z,31.70
2019-05-28T22:20:38.678Z,31.70
2019-05-28T22:23:06.535Z,31.80
2019-05-28T22:25:33.479Z,31.80
2019-05-28T22:28:00.686Z,31.80
2019-05-28T22:30:28.241Z,31.80
2019-05-28T22:32:55.719Z,31.70
2019-05-28T22:35:22.756Z,31.70
2019-05-28T22:37:49.499Z,31.70
2019-05-28T22:40:16.581Z,31.70
2019-05-28T22:42:43.603Z,31.70
2019-05-28T22:45:10.670Z,31.70
2019-05-28T22:47:38.336Z,31.60
2019-05-28T22:50:19.516Z,31.60
2019-05-28T22:52:36.766Z,31.60
2019-05-28T22:55:06.643Z,31.60
2019-05-28T22:57:33.307Z,31.60
2019-05-28T23:00:00.407Z,31.50
2019-05-28T23:02:27.278Z,31.40
2019-05-28T23:04:54.503Z,31.40
2019-05-28T23:07:21.470Z,31.40
2019-05-28T23:09:49.031Z,31.40
2019-05-28T23:12:15.857Z,31.50
2019-05-28T23:14:42.493Z,31.50
2019-05-28T23:17:10.385Z,31.60
2019-05-28T23:19:37.297Z,31.70
2019-05-28T23:22:04.902Z,31.80
2019-05-28T23:24:32.564Z,31.80
2019-05-28T23:27:01.320Z,32.00
2019-05-28T23:29:28.379Z,32.00
2019-05-28T23:31:55.748Z,32.10
2019-05-28T23:34:22.698Z,32.20
2019-05-28T23:36:49.722Z,32.30
2019-05-28T23:39:16.802Z,32.30
2019-05-28T23:41:44.333Z,32.30
2019-05-28T23:44:11.690Z,32.40
2019-05-28T23:46:38.891Z,32.40
2019-05-28T23:49:06.095Z,32.40
2019-05-28T23:51:32.763Z,32.40
2019-05-28T23:53:59.803Z,32.40
2019-05-28T23:56:26.479Z,32.40
2019-05-28T23:58:53.287Z,32.40
